Time;durP1;ratioP1;P1;durP2;ratioP2;P2;SDS_P1;SDS_P2;PMS_P1;PMS_P2;Temp;Humidity;BMP_temperature;BMP_pressure;BME280_temperature;BME280_humidity;BME280_pressure;Samples;Min_cycle;Max_cycle;Signal;HPM_P1;HPM_P2
2023/07/17 00:00:51;;;;;;;8.18;4.85;;;;;;;15.26;100.00;101372.06;5037849;28;20049;-72
2023/07/17 00:03:16;;;;;;;8.90;5.20;;;;;;;15.30;100.00;101366.44;5040569;28;20029;-69
2023/07/17 00:05:42;;;;;;;7.82;5.10;;;;;;;15.31;100.00;101365.47;5025505;28;20483;-74
2023/07/17 00:08:09;;;;;;;8.65;4.72;;;;;;;15.31;100.00;101362.78;5032572;28;20024;-74
2023/07/17 00:10:37;;;;;;;8.05;4.75;;;;;;;15.35;100.00;101360.78;5035943;28;20028;-73
2023/07/17 00:13:02;;;;;;;8.00;4.85;;;;;;;15.37;100.00;101373.13;5035286;28;20025;-75
2023/07/17 00:15:27;;;;;;;6.63;4.70;;;;;;;15.39;100.00;101376.59;5032832;28;20026;-70
2023/07/17 00:17:53;;;;;;;10.35;4.88;;;;;;;15.44;100.00;101373.63;5037822;28;20083;-70
2023/07/17 00:20:18;;;;;;;8.32;4.90;;;;;;;15.47;100.00;101369.84;5039600;28;20036;-70
2023/07/17 00:22:44;;;;;;;6.18;4.45;;;;;;;15.48;100.00;101374.28;5033249;28;20091;-70
2023/07/17 00:25:09;;;;;;;6.30;4.53;;;;;;;15.47;100.00;101375.22;5037312;28;20258;-73
2023/07/17 00:27:35;;;;;;;8.18;4.47;;;;;;;15.47;100.00;101356.44;5037046;28;20518;-71
2023/07/17 00:30:00;;;;;;;7.82;4.03;;;;;;;15.48;100.00;101372.47;5037732;28;20029;-67
2023/07/17 00:32:26;;;;;;;6.63;4.20;;;;;;;15.43;100.00;101378.13;5034764;28;20034;-71
2023/07/17 00:34:51;;;;;;;8.05;4.53;;;;;;;15.44;100.00;101381.66;5039876;28;20033;-74
2023/07/17 00:37:17;;;;;;;6.57;4.03;;;;;;;15.43;100.00;101380.81;5040603;28;20021;-70
2023/07/17 00:39:42;;;;;;;6.28;4.13;;;;;;;15.45;100.00;101386.91;5041008;28;20581;-71
2023/07/17 00:42:08;;;;;;;6.18;3.80;;;;;;;15.48;100.00;101387.69;5038795;28;20516;-69
2023/07/17 00:44:35;;;;;;;6.63;4.50;;;;;;;15.47;100.00;101391.31;5039779;28;20029;-71
2023/07/17 00:47:02;;;;;;;6.45;3.85;;;;;;;15.45;100.00;101386.91;5037178;28;20136;-72
2023/07/17 00:49:29;;;;;;;5.80;3.72;;;;;;;15.42;100.00;101391.59;5038036;28;20041;-71
2023/07/17 00:51:56;;;;;;;6.10;4.13;;;;;;;15.41;100.00;101393.44;5033460;28;20025;-72
2023/07/17 00:54:22;;;;;;;6.63;4.28;;;;;;;15.37;100.00;101397.25;5039617;28;20036;-76
2023/07/17 00:56:48;;;;;;;7.22;4.05;;;;;;;15.34;100.00;101404.63;5043310;28;20037;-74
2023/07/17 00:59:14;;;;;;;6.45;3.92;;;;;;;15.33;100.00;101405.59;5036465;28;20506;-71
2023/07/17 01:01:41;;;;;;;7.75;3.95;;;;;;;15.28;100.00;101407.72;5040484;28;20049;-68
2023/07/17 01:04:07;;;;;;;6.38;3.90;;;;;;;15.26;100.00;101397.09;5043217;28;20372;-70
2023/07/17 01:06:38;;;;;;;6.18;4.28;;;;;;;15.26;100.00;101407.81;5038268;28;20028;-74
2023/07/17 01:09:04;;;;;;;6.13;3.97;;;;;;;15.22;100.00;101402.75;5041111;28;20135;-71
2023/07/17 01:11:30;;;;;;;6.70;3.88;;;;;;;15.20;100.00;101405.50;5043024;28;20483;-73
2023/07/17 01:13:55;;;;;;;6.35;4.15;;;;;;;15.13;100.00;101406.81;5041545;28;20047;-68
2023/07/17 01:16:20;;;;;;;7.97;4.30;;;;;;;15.11;100.00;101408.75;5040228;28;20021;-69
2023/07/17 01:18:46;;;;;;;7.05;4.18;;;;;;;15.06;100.00;101403.66;5038821;28;20123;-69
2023/07/17 01:21:16;;;;;;;8.52;4.43;;;;;;;15.08;100.00;101406.25;5039851;28;20036;-74
2023/07/17 01:23:42;;;;;;;5.72;3.70;;;;;;;15.06;100.00;101410.84;5040782;28;20025;-69
2023/07/17 01:26:15;;;;;;;6.97;4.10;;;;;;;15.05;100.00;101412.66;5041545;28;20033;-73
2023/07/17 01:28:42;;;;;;;6.05;3.90;;;;;;;15.04;100.00;101423.47;5040144;28;20017;-72
2023/07/17 01:31:08;;;;;;;5.85;3.80;;;;;;;15.02;100.00;101422.72;5039404;28;20326;-71
2023/07/17 01:33:34;;;;;;;7.07;4.25;;;;;;;15.00;100.00;101420.09;5040201;28;20078;-76
2023/07/17 01:36:00;;;;;;;6.97;4.10;;;;;;;15.02;100.00;101426.25;5034433;28;20367;-71
2023/07/17 01:38:26;;;;;;;6.13;3.92;;;;;;;15.04;100.00;101427.00;5043792;28;20036;-74
2023/07/17 01:40:52;;;;;;;5.05;4.00;;;;;;;15.05;100.00;101419.81;5037871;28;20409;-68
2023/07/17 01:43:17;;;;;;;6.80;4.00;;;;;;;15.12;100.00;101423.88;5041188;28;20029;-75
2023/07/17 01:45:43;;;;;;;7.13;3.97;;;;;;;15.12;100.00;101421.19;5037173;28;20352;-73
2023/07/17 01:48:09;;;;;;;6.47;3.67;;;;;;;15.11;100.00;101414.09;5037257;28;20045;-72
2023/07/17 01:50:34;;;;;;;8.05;3.95;;;;;;;15.16;100.00;101418.22;5036532;28;20566;-70
2023/07/17 01:53:00;;;;;;;4.65;3.67;;;;;;;15.14;100.00;101414.78;5032712;28;20404;-70
2023/07/17 01:55:25;;;;;;;4.50;3.17;;;;;;;15.14;100.00;101421.97;5039133;28;20498;-73
2023/07/17 01:57:50;;;;;;;6.13;4.00;;;;;;;15.15;100.00;101412.97;5042655;28;20403;-71
2023/07/17 02:00:16;;;;;;;7.78;4.28;;;;;;;15.15;100.00;101423.69;5036932;28;20483;-71
2023/07/17 02:02:41;;;;;;;7.30;3.92;;;;;;;15.12;100.00;101423.88;5040956;28;20090;-70
2023/07/17 02:05:07;;;;;;;6.55;3.60;;;;;;;15.05;100.00;101430.53;5039018;28;20162;-70
2023/07/17 02:07:33;;;;;;;5.68;3.65;;;;;;;14.99;100.00;101421.06;5040736;28;20670;-74
2023/07/17 02:09:58;;;;;;;5.93;3.72;;;;;;;14.93;100.00;101416.09;5036761;28;20029;-71
2023/07/17 02:12:26;;;;;;;5.93;3.20;;;;;;;14.90;100.00;101425.16;5039955;28;20070;-69
2023/07/17 02:14:51;;;;;;;6.88;3.67;;;;;;;14.80;100.00;101415.97;5032840;28;20135;-72
2023/07/17 02:17:17;;;;;;;5.40;3.40;;;;;;;14.81;100.00;101419.50;5053939;28;20029;-74
2023/07/17 02:19:42;;;;;;;6.38;3.88;;;;;;;14.76;100.00;101411.72;5036440;28;20226;-73
2023/07/17 02:22:08;;;;;;;5.43;3.97;;;;;;;14.74;100.00;101410.94;5040253;28;20533;-73
2023/07/17 02:24:33;;;;;;;7.22;3.70;;;;;;;14.71;100.00;101421.84;5036616;28;20041;-74
2023/07/17 02:26:58;;;;;;;7.40;3.80;;;;;;;14.64;100.00;101420.50;5036611;28;20066;-73
2023/07/17 02:29:24;;;;;;;5.05;3.53;;;;;;;14.62;100.00;101425.06;5036346;28;20503;-65
2023/07/17 02:31:50;;;;;;;6.82;3.50;;;;;;;14.58;100.00;101416.34;5039238;28;20051;-70
2023/07/17 02:34:16;;;;;;;5.80;3.67;;;;;;;14.52;100.00;101418.53;5040259;28;20064;-70
2023/07/17 02:36:42;;;;;;;6.18;3.20;;;;;;;14.52;100.00;101426.56;5037555;28;20029;-73
2023/07/17 02:39:08;;;;;;;5.82;3.55;;;;;;;14.48;100.00;101427.66;5034501;28;20104;-73
2023/07/17 02:41:33;;;;;;;6.78;3.88;;;;;;;14.46;100.00;101430.41;5037513;28;20272;-71
2023/07/17 02:43:59;;;;;;;4.90;3.30;;;;;;;14.43;100.00;101428.78;5040285;28;20255;-69
2023/07/17 02:46:24;;;;;;;7.10;3.65;;;;;;;14.40;100.00;101430.78;5037663;28;20029;-67
2023/07/17 02:48:49;;;;;;;7.03;3.90;;;;;;;14.37;100.00;101430.94;5035987;28;20034;-70
2023/07/17 02:51:15;;;;;;;8.18;3.60;;;;;;;14.33;100.00;101435.59;5039666;28;20167;-70
2023/07/17 02:53:40;;;;;;;6.65;3.65;;;;;;;14.30;100.00;101442.97;5035157;28;20037;-71
2023/07/17 02:56:07;;;;;;;5.63;3.60;;;;;;;14.25;100.00;101429.81;5037224;28;20159;-74
2023/07/17 02:58:33;;;;;;;8.13;3.58;;;;;;;14.24;100.00;101432.59;5038318;28;20051;-68
2023/07/17 03:00:58;;;;;;;5.13;3.67;;;;;;;14.16;100.00;101441.06;5036877;28;20029;-69
2023/07/17 03:03:26;;;;;;;5.93;3.83;;;;;;;14.13;100.00;101439.44;5037898;28;20349;-67
2023/07/17 03:05:56;;;;;;;5.80;3.38;;;;;;;14.11;100.00;101440.47;5036643;28;20499;-71
2023/07/17 03:08:21;;;;;;;5.82;3.78;;;;;;;14.08;100.00;101437.94;5040088;28;20025;-75
2023/07/17 03:10:47;;;;;;;8.10;3.70;;;;;;;14.08;100.00;101443.31;5038080;28;20088;-69
2023/07/17 03:13:12;;;;;;;11.40;3.70;;;;;;;14.05;100.00;101447.03;5040791;28;20025;-69
2023/07/17 03:15:38;;;;;;;9.82;4.15;;;;;;;14.02;100.00;101451.69;5040217;28;20099;-70
2023/07/17 03:18:03;;;;;;;8.07;3.70;;;;;;;14.01;100.00;101458.00;5035881;28;20025;-67
2023/07/17 03:20:28;;;;;;;6.22;3.72;;;;;;;13.98;100.00;101453.66;5039925;28;20035;-68
2023/07/17 03:22:57;;;;;;;6.53;3.90;;;;;;;14.00;100.00;101453.56;5038369;28;20064;-74
2023/07/17 03:25:22;;;;;;;8.45;3.83;;;;;;;13.88;100.00;101458.66;5036772;28;20059;-71
2023/07/17 03:27:48;;;;;;;6.45;3.92;;;;;;;13.88;100.00;101453.31;5035407;28;20064;-71
2023/07/17 03:30:13;;;;;;;8.38;4.10;;;;;;;13.88;100.00;101465.84;5037989;28;20395;-74
2023/07/17 03:32:39;;;;;;;10.88;4.15;;;;;;;13.83;100.00;101468.72;5033215;28;20104;-69
2023/07/17 03:35:05;;;;;;;9.00;4.05;;;;;;;13.87;100.00;101470.28;5034715;28;20135;-71
2023/07/17 03:37:33;;;;;;;7.28;4.40;;;;;;;13.85;100.00;101471.34;5035843;28;20028;-67
2023/07/17 03:39:58;;;;;;;7.05;3.75;;;;;;;13.83;100.00;101465.19;5040289;28;20033;-69
2023/07/17 03:42:27;;;;;;;7.22;4.32;;;;;;;13.79;100.00;101459.16;5036200;28;20031;-73
2023/07/17 03:44:53;;;;;;;6.93;4.10;;;;;;;13.77;100.00;101463.72;5037067;28;20035;-72
2023/07/17 03:47:18;;;;;;;6.07;3.90;;;;;;;13.74;100.00;101461.22;5033120;28;20056;-70
2023/07/17 03:49:43;;;;;;;7.00;3.92;;;;;;;13.75;100.00;101470.97;5039815;28;20025;-74
2023/07/17 03:52:09;;;;;;;7.60;4.28;;;;;;;13.73;100.00;101466.66;5036666;28;20020;-71
2023/07/17 03:54:34;;;;;;;7.25;3.80;;;;;;;13.71;100.00;101464.09;5038040;28;20031;-69
2023/07/17 03:56:59;;;;;;;7.13;3.97;;;;;;;13.69;100.00;101471.31;5033196;28;20087;-73
2023/07/17 03:59:25;;;;;;;7.30;3.85;;;;;;;13.68;100.00;101473.13;5037125;28;20163;-67
2023/07/17 04:01:51;;;;;;;9.85;4.40;;;;;;;13.69;100.00;101480.19;5036359;28;20376;-73
2023/07/17 04:04:17;;;;;;;7.18;4.20;;;;;;;13.69;100.00;101473.97;5040833;28;21604;-69
2023/07/17 04:06:42;;;;;;;8.15;3.97;;;;;;;13.70;100.00;101481.06;5038494;28;20346;-74
2023/07/17 04:09:07;;;;;;;9.10;4.82;;;;;;;13.65;100.00;101481.31;5036276;28;20036;-75
2023/07/17 04:11:33;;;;;;;6.28;4.10;;;;;;;13.69;100.00;101482.88;5041197;28;20111;-73
2023/07/17 04:13:58;;;;;;;8.02;4.55;;;;;;;13.69;100.00;101476.66;5039588;28;20032;-73
2023/07/17 04:16:26;;;;;;;7.72;4.18;;;;;;;13.68;100.00;101481.16;5045506;28;20141;-73
2023/07/17 04:18:52;;;;;;;7.03;3.83;;;;;;;13.70;100.00;101483.72;5042510;28;20032;-69
2023/07/17 04:21:17;;;;;;;7.47;3.95;;;;;;;13.71;100.00;101485.47;5058066;28;20033;-69
2023/07/17 04:23:42;;;;;;;7.70;3.88;;;;;;;13.73;100.00;101482.72;5044091;28;20283;-74
2023/07/17 04:26:08;;;;;;;8.07;4.03;;;;;;;13.69;100.00;101484.69;5033412;28;21536;-67
2023/07/17 04:28:33;;;;;;;7.90;4.70;;;;;;;13.69;100.00;101484.69;5033148;28;20468;-69
2023/07/17 04:31:03;;;;;;;8.93;4.60;;;;;;;13.73;100.00;101491.59;5031225;28;20029;-71
2023/07/17 04:33:28;;;;;;;6.80;4.28;;;;;;;13.74;100.00;101492.47;5031211;28;20063;-68
2023/07/17 04:35:56;;;;;;;7.65;3.83;;;;;;;13.72;100.00;101491.69;5034800;28;20119;-75
2023/07/17 04:38:21;;;;;;;7.88;4.30;;;;;;;13.75;100.00;101497.72;5032385;28;20025;-73
2023/07/17 04:40:47;;;;;;;12.05;4.47;;;;;;;13.77;100.00;101492.31;5034914;28;20037;-73
2023/07/17 04:43:12;;;;;;;9.05;4.53;;;;;;;13.78;100.00;101494.88;5034019;28;20399;-73
2023/07/17 04:45:44;;;;;;;6.80;4.32;;;;;;;13.82;100.00;101509.81;5032465;28;20021;-74
2023/07/17 04:48:09;;;;;;;8.70;4.47;;;;;;;13.78;100.00;101508.25;5032765;28;20132;-75
2023/07/17 04:50:34;;;;;;;9.02;4.35;;;;;;;13.83;100.00;101510.69;5038319;28;20406;-72
2023/07/17 04:53:00;;;;;;;8.00;4.47;;;;;;;13.86;100.00;101510.53;5043810;28;20031;-70
2023/07/17 04:55:25;;;;;;;8.10;4.50;;;;;;;13.90;100.00;101512.09;5041771;28;20013;-67
2023/07/17 04:57:51;;;;;;;8.82;4.72;;;;;;;13.89;100.00;101513.91;5042025;28;20036;-73
2023/07/17 05:00:16;;;;;;;12.38;5.20;;;;;;;13.92;100.00;101516.44;5040072;28;20503;-70
2023/07/17 05:02:42;;;;;;;9.32;5.15;;;;;;;13.98;100.00;101520.56;5040243;28;20487;-70
2023/07/17 05:05:08;;;;;;;8.88;5.05;;;;;;;14.03;100.00;101518.50;5042730;28;20380;-74
2023/07/17 05:07:33;;;;;;;9.45;5.35;;;;;;;14.09;100.00;101523.53;5040621;28;20024;-68
2023/07/17 05:09:59;;;;;;;11.07;5.43;;;;;;;14.15;100.00;101528.53;5040601;28;20485;-72
2023/07/17 05:12:28;;;;;;;7.80;4.82;;;;;;;14.19;100.00;101518.53;5043391;28;20025;-72
2023/07/17 05:14:53;;;;;;;9.90;5.03;;;;;;;14.26;100.00;101532.47;5039684;28;20047;-72
2023/07/17 05:17:18;;;;;;;7.63;4.63;;;;;;;14.30;100.00;101528.66;5036294;28;20476;-72
2023/07/17 05:19:44;;;;;;;7.28;4.85;;;;;;;14.34;100.00;101530.22;5042524;28;20562;-71
2023/07/17 05:22:09;;;;;;;8.20;4.60;;;;;;;14.38;100.00;101543.34;5039269;28;20029;-70
2023/07/17 05:24:35;;;;;;;10.45;4.97;;;;;;;14.43;100.00;101537.75;5034467;28;20021;-71
2023/07/17 05:27:00;;;;;;;9.88;5.07;;;;;;;14.52;100.00;101536.38;5039313;28;20070;-71
2023/07/17 05:29:28;;;;;;;10.18;5.30;;;;;;;14.54;100.00;101534.47;5036603;28;20491;-66
2023/07/17 05:31:54;;;;;;;10.75;4.85;;;;;;;14.63;100.00;101541.97;5040384;28;20033;-74
2023/07/17 05:34:19;;;;;;;8.05;4.50;;;;;;;14.66;100.00;101537.31;5035612;28;20021;-71
2023/07/17 05:36:45;;;;;;;6.30;4.35;;;;;;;14.77;100.00;101549.25;5034950;28;20403;-70
2023/07/17 05:39:10;;;;;;;10.15;5.32;;;;;;;14.83;99.41;101544.38;5037474;28;20074;-74
2023/07/17 05:41:35;;;;;;;7.47;4.50;;;;;;;14.89;98.03;101552.09;5034538;28;20087;-74
2023/07/17 05:44:01;;;;;;;9.02;4.63;;;;;;;14.92;98.09;101556.41;5035801;28;20110;-72
2023/07/17 05:46:29;;;;;;;9.55;4.75;;;;;;;14.97;97.69;101553.47;5038372;28;20447;-67
2023/07/17 05:48:54;;;;;;;9.88;4.78;;;;;;;15.05;97.34;101559.22;5038759;28;20145;-69
2023/07/17 05:51:20;;;;;;;10.63;5.22;;;;;;;15.12;96.34;101569.50;5040092;28;20051;-69
2023/07/17 05:53:45;;;;;;;10.15;4.78;;;;;;;15.21;96.73;101557.38;5039455;28;20095;-75
2023/07/17 05:56:14;;;;;;;10.43;5.13;;;;;;;15.32;96.18;101564.81;5035143;28;20035;-66
2023/07/17 05:58:41;;;;;;;8.07;5.03;;;;;;;15.47;96.44;101571.06;5036828;28;20031;-74
2023/07/17 06:01:06;;;;;;;12.68;5.35;;;;;;;15.53;93.75;101563.53;5037049;28;20127;-68
2023/07/17 06:03:31;;;;;;;9.30;5.30;;;;;;;15.66;94.04;101577.09;5035420;28;20123;-73
2023/07/17 06:05:57;;;;;;;8.52;4.85;;;;;;;15.72;93.10;101567.78;5039237;28;20159;-69
2023/07/17 06:08:22;;;;;;;8.18;5.22;;;;;;;15.89;92.72;101573.03;5038535;28;20036;-72
2023/07/17 06:10:49;;;;;;;7.38;4.72;;;;;;;15.99;90.93;101578.66;5035466;28;20036;-75
2023/07/17 06:13:16;;;;;;;9.10;5.20;;;;;;;16.09;89.14;101564.59;5033424;28;20040;-68
2023/07/17 06:15:41;;;;;;;11.75;5.60;;;;;;;16.25;89.21;101577.03;5038166;28;20021;-68
2023/07/17 06:18:07;;;;;;;9.32;5.18;;;;;;;16.33;89.07;101580.97;5035762;28;20596;-70
2023/07/17 06:20:32;;;;;;;13.27;6.40;;;;;;;16.44;86.19;101583.84;5040347;28;20063;-67
2023/07/17 06:22:57;;;;;;;11.50;5.65;;;;;;;16.55;86.94;101582.28;5037384;28;20037;-71
2023/07/17 06:25:23;;;;;;;8.93;5.07;;;;;;;16.69;85.94;101582.28;5041147;28;20200;-70
2023/07/17 06:27:48;;;;;;;8.73;5.07;;;;;;;16.83;84.67;101574.19;5035158;28;20033;-68
2023/07/17 06:30:14;;;;;;;11.02;5.38;;;;;;;16.93;83.55;101580.72;5040166;28;20201;-71
2023/07/17 06:32:42;;;;;;;12.00;6.28;;;;;;;17.08;82.31;101578.81;5036111;28;20080;-72
2023/07/17 06:35:08;;;;;;;9.35;5.47;;;;;;;17.17;81.61;101590.78;5039469;28;20061;-70
2023/07/17 06:37:34;;;;;;;9.38;5.78;;;;;;;17.22;80.63;101596.72;5039093;28;20057;-71
2023/07/17 06:39:59;;;;;;;10.88;5.63;;;;;;;17.26;80.28;101592.84;5041456;28;20038;-72
2023/07/17 06:42:24;;;;;;;13.45;5.55;;;;;;;17.43;79.74;101594.41;5042690;28;20029;-72
2023/07/17 06:44:50;;;;;;;9.43;5.38;;;;;;;17.63;79.50;101607.38;5040024;28;20025;-69
2023/07/17 06:47:15;;;;;;;9.35;5.35;;;;;;;17.86;78.11;101604.97;5037965;28;20033;-68
2023/07/17 06:49:41;;;;;;;9.80;4.90;;;;;;;18.05;78.08;101616.19;5034450;28;20029;-71
2023/07/17 06:52:07;;;;;;;11.43;6.20;;;;;;;18.15;76.20;101605.63;5030831;28;20364;-69
2023/07/17 06:54:32;;;;;;;8.43;5.53;;;;;;;18.28;76.09;101619.09;5034656;28;20491;-70
2023/07/17 06:56:58;;;;;;;9.77;5.43;;;;;;;18.19;75.16;101617.91;5035502;28;20077;-72
2023/07/17 06:59:26;;;;;;;7.05;4.90;;;;;;;18.21;75.67;101610.56;5036189;28;20025;-73
2023/07/17 07:01:54;;;;;;;9.70;4.97;;;;;;;18.50;75.27;101621.13;5039016;28;20499;-74
2023/07/17 07:04:19;;;;;;;8.25;5.22;;;;;;;18.47;73.34;101611.41;5040306;28;20025;-73
2023/07/17 07:06:44;;;;;;;9.55;4.97;;;;;;;18.34;72.50;101618.66;5040288;28;20419;-73
2023/07/17 07:09:10;;;;;;;11.57;5.85;;;;;;;18.36;73.55;101619.41;5036687;28;20119;-73
2023/07/17 07:11:35;;;;;;;11.75;5.75;;;;;;;18.60;73.29;101617.66;5037270;28;20109;-72
2023/07/17 07:14:00;;;;;;;8.77;4.70;;;;;;;18.82;71.49;101630.47;5037899;28;20017;-74
2023/07/17 07:16:28;;;;;;;11.70;5.53;;;;;;;18.70;70.52;101638.59;5037604;28;20475;-69
2023/07/17 07:18:54;;;;;;;10.57;4.78;;;;;;;18.42;71.91;101633.31;5031218;28;20414;-73
2023/07/17 07:21:19;;;;;;;11.60;5.22;;;;;;;18.30;72.11;101628.78;5040443;28;20029;-73
2023/07/17 07:23:44;;;;;;;9.57;4.82;;;;;;;18.66;72.68;101629.81;5032461;28;20036;-71
2023/07/17 07:26:10;;;;;;;9.25;5.18;;;;;;;18.98;70.39;101629.31;5033888;28;20128;-69
2023/07/17 07:28:35;;;;;;;10.85;5.05;;;;;;;19.44;69.27;101634.88;5030271;28;20028;-74
2023/07/17 07:31:02;;;;;;;9.93;5.10;;;;;;;19.46;66.88;101635.59;5034166;28;20020;-70
2023/07/17 07:33:28;;;;;;;9.88;5.40;;;;;;;19.38;67.23;101640.72;5037945;28;20388;-68
2023/07/17 07:35:53;;;;;;;8.63;4.72;;;;;;;19.20;67.30;101640.25;5037908;28;20083;-70
2023/07/17 07:38:19;;;;;;;8.30;4.47;;;;;;;19.62;67.27;101638.03;5036685;28;20112;-71
2023/07/17 07:40:44;;;;;;;9.45;4.80;;;;;;;20.31;65.30;101644.31;5037805;28;20044;-72
2023/07/17 07:43:10;;;;;;;9.02;4.55;;;;;;;20.93;62.18;101647.53;5035555;28;20032;-72
2023/07/17 07:45:35;;;;;;;9.63;4.72;;;;;;;21.47;60.10;101644.81;5049539;28;20028;-68
2023/07/17 07:48:01;;;;;;;9.82;4.43;;;;;;;20.81;60.51;101646.66;5033675;28;20053;-67
2023/07/17 07:50:26;;;;;;;7.78;4.10;;;;;;;20.52;61.84;101657.13;5035633;28;20171;-66
2023/07/17 07:52:54;;;;;;;11.07;4.75;;;;;;;21.10;60.99;101653.25;5040907;28;20017;-74
2023/07/17 07:55:20;;;;;;;8.07;4.68;;;;;;;21.28;59.49;101666.28;5043866;28;20017;-75
2023/07/17 07:57:45;;;;;;;9.93;4.55;;;;;;;21.22;59.01;101658.66;5039883;28;20029;-68
2023/07/17 08:00:11;;;;;;;7.22;4.47;;;;;;;20.73;59.46;101665.38;5034185;28;20093;-67
2023/07/17 08:02:39;;;;;;;10.98;4.55;;;;;;;20.68;59.76;101673.84;5034379;28;20119;-71
2023/07/17 08:05:05;;;;;;;10.95;4.88;;;;;;;21.57;57.99;101661.13;5034965;28;20029;-70
2023/07/17 08:07:30;;;;;;;7.30;4.45;;;;;;;22.29;54.84;101665.84;5035520;28;20025;-75
2023/07/17 08:09:58;;;;;;;7.85;4.30;;;;;;;22.10;55.30;101680.94;5039959;28;20028;-74
2023/07/17 08:12:24;;;;;;;8.40;4.32;;;;;;;22.95;53.17;101670.84;5037047;28;20024;-72
2023/07/17 08:14:50;;;;;;;7.55;4.22;;;;;;;23.28;52.05;101670.53;5029850;28;20574;-70
2023/07/17 08:17:15;;;;;;;6.80;4.20;;;;;;;22.86;51.61;101681.50;5036422;28;20028;-72
2023/07/17 08:19:41;;;;;;;8.13;4.20;;;;;;;21.87;53.27;101673.97;5036233;28;20037;-72
2023/07/17 08:22:06;;;;;;;7.55;4.28;;;;;;;22.05;54.84;101679.63;5037903;28;20301;-65
2023/07/17 08:24:32;;;;;;;7.38;4.38;;;;;;;22.48;52.83;101678.63;5038701;28;20538;-68
2023/07/17 08:26:57;;;;;;;9.25;4.22;;;;;;;23.33;50.93;101675.53;5036727;28;20554;-70
2023/07/17 08:29:22;;;;;;;7.18;3.92;;;;;;;23.89;49.39;101682.16;5035841;28;20074;-71
2023/07/17 08:31:48;;;;;;;7.18;4.32;;;;;;;23.86;48.25;101683.28;5037919;28;20284;-74
2023/07/17 08:34:13;;;;;;;8.88;4.20;;;;;;;23.95;47.31;101681.56;5036385;28;20108;-74
2023/07/17 08:36:39;;;;;;;5.18;3.78;;;;;;;24.40;47.31;101681.78;5036939;28;20049;-74
2023/07/17 08:39:05;;;;;;;7.43;4.43;;;;;;;25.13;44.03;101675.63;5042777;28;20068;-67
2023/07/17 08:41:30;;;;;;;7.70;4.22;;;;;;;25.37;43.56;101675.03;5031766;28;20037;-70
2023/07/17 08:43:59;;;;;;;8.70;4.10;;;;;;;25.52;43.19;101687.97;5036243;28;20052;-73
2023/07/17 08:46:25;;;;;;;7.38;4.28;;;;;;;25.92;42.36;101680.34;5039479;28;20055;-71
2023/07/17 08:48:52;;;;;;;6.10;3.65;;;;;;;26.15;42.51;101678.81;5029977;28;20570;-71
2023/07/17 08:51:21;;;;;;;7.47;4.00;;;;;;;25.90;42.97;101685.09;5034487;28;20033;-70
2023/07/17 08:53:46;;;;;;;6.00;3.53;;;;;;;25.78;41.85;101688.06;5035488;28;20669;-73
2023/07/17 08:56:12;;;;;;;9.10;3.60;;;;;;;25.90;41.01;101687.84;5039052;28;20029;-73
2023/07/17 08:58:40;;;;;;;7.03;3.20;;;;;;;26.59;39.77;101687.00;5043029;28;20104;-70
2023/07/17 09:01:06;;;;;;;6.03;3.10;;;;;;;27.45;37.33;101684.06;5054993;28;20033;-71
2023/07/17 09:03:34;;;;;;;6.50;3.30;;;;;;;28.08;36.29;101687.22;5045681;28;20029;-68
2023/07/17 09:06:02;;;;;;;6.32;2.85;;;;;;;28.38;35.47;101685.66;5040328;28;20021;-68
2023/07/17 09:08:28;;;;;;;6.22;3.55;;;;;;;28.52;34.55;101685.81;5045368;28;20264;-74
2023/07/17 09:11:04;;;;;;;5.07;3.30;;;;;;;27.98;35.70;101692.88;5038664;28;20098;-72
2023/07/17 09:13:42;;;;;;;6.53;3.08;;;;;;;27.39;37.03;101686.63;5035782;28;20478;-72
2023/07/17 09:16:23;;;;;;;5.65;2.80;;;;;;;27.34;36.77;101686.25;5037496;28;20024;-71
2023/07/17 09:18:50;;;;;;;4.85;2.95;;;;;;;27.85;35.06;101687.91;5030990;28;20052;-72
2023/07/17 09:21:25;;;;;;;6.10;2.97;;;;;;;28.86;34.85;101703.00;5038716;28;20480;-74
2023/07/17 09:23:53;;;;;;;5.63;2.80;;;;;;;29.97;32.28;101691.69;5037306;28;20112;-72
2023/07/17 09:26:21;;;;;;;5.80;3.13;;;;;;;30.08;31.98;101693.16;5038361;28;20104;-74
2023/07/17 09:28:59;;;;;;;4.82;2.78;;;;;;;28.50;34.00;101695.22;5040415;28;20094;-75
2023/07/17 09:31:28;;;;;;;4.68;3.05;;;;;;;27.90;33.69;101701.94;5035457;28;20033;-70
2023/07/17 09:33:55;;;;;;;4.68;3.28;;;;;;;27.27;34.36;101706.09;5036167;28;20092;-70
2023/07/17 09:36:21;;;;;;;5.57;2.95;;;;;;;27.53;34.21;101700.50;5039863;28;20052;-67
2023/07/17 09:38:55;;;;;;;5.80;2.92;;;;;;;28.58;33.44;101699.81;5048538;28;20036;-72
2023/07/17 09:41:26;;;;;;;5.10;2.88;;;;;;;29.69;32.89;101699.66;5037241;28;20128;-72
2023/07/17 09:43:53;;;;;;;4.38;2.53;;;;;;;30.80;29.42;101698.97;5039506;28;20513;-72
2023/07/17 09:46:19;;;;;;;5.82;2.70;;;;;;;30.49;29.67;101705.47;5032031;28;20033;-68
2023/07/17 09:48:45;;;;;;;5.25;3.08;;;;;;;28.99;31.30;101711.53;5035761;28;20126;-67
2023/07/17 09:51:12;;;;;;;4.60;2.90;;;;;;;29.08;31.18;101707.72;5039655;28;20052;-66
2023/07/17 09:53:39;;;;;;;3.92;2.67;;;;;;;30.02;29.91;101697.50;5044017;28;20029;-71
2023/07/17 09:56:06;;;;;;;5.35;2.80;;;;;;;31.01;28.84;101698.19;5039202;28;20029;-68
2023/07/17 09:58:35;;;;;;;4.80;2.60;;;;;;;30.92;28.01;101707.59;5035779;28;20112;-72
2023/07/17 10:01:03;;;;;;;5.10;2.70;;;;;;;31.37;27.66;101705.63;5030412;28;20040;-69
2023/07/17 10:03:30;;;;;;;5.00;2.90;;;;;;;31.66;27.84;101711.03;5030348;28;20020;-71
2023/07/17 10:05:59;;;;;;;4.93;2.33;;;;;;;31.31;27.74;101711.91;5034507;28;20497;-70
2023/07/17 10:08:28;;;;;;;5.65;2.58;;;;;;;28.92;29.41;101716.81;5034361;28;20021;-67
2023/07/17 10:10:54;;;;;;;3.75;2.55;;;;;;;28.65;30.23;101720.84;5038615;28;20047;-75
2023/07/17 10:13:20;;;;;;;4.00;2.65;;;;;;;27.96;30.37;101703.13;5035015;28;20468;-71
2023/07/17 10:15:46;;;;;;;4.63;2.42;;;;;;;26.58;31.95;101704.38;5029670;28;20029;-71
2023/07/17 10:18:11;;;;;;;5.35;2.97;;;;;;;26.80;33.85;101698.38;5029451;28;20696;-73
2023/07/17 10:20:38;;;;;;;3.10;2.25;;;;;;;28.78;30.68;101701.97;5038311;28;20055;-70
2023/07/17 10:23:09;;;;;;;5.18;3.00;;;;;;;29.34;29.18;101710.13;5039470;28;20256;-68
2023/07/17 10:25:36;;;;;;;3.95;2.70;;;;;;;28.05;30.67;101707.59;5036125;28;21440;-70
2023/07/17 10:28:03;;;;;;;5.15;2.72;;;;;;;26.65;33.23;101710.06;5037998;28;20032;-73
2023/07/17 10:30:33;;;;;;;5.15;3.00;;;;;;;27.37;32.05;101710.53;5038741;28;20023;-70
2023/07/17 10:33:07;;;;;;;5.50;3.08;;;;;;;29.48;30.87;101705.78;5033647;28;20180;-69
2023/07/17 10:35:53;;;;;;;5.80;3.03;;;;;;;31.11;28.58;101696.00;5034592;28;20082;-72
2023/07/17 10:38:38;;;;;;;6.65;3.28;;;;;;;32.33;27.20;101701.47;5039041;28;20093;-67
2023/07/17 10:41:04;;;;;;;5.90;3.38;;;;;;;33.75;24.42;101702.81;5033737;28;20040;-69
2023/07/17 10:43:31;;;;;;;4.68;2.95;;;;;;;34.71;23.17;101694.91;5035885;28;20082;-71
2023/07/17 10:45:58;;;;;;;3.75;2.53;;;;;;;33.79;23.93;101696.66;5042362;28;20040;-67
2023/07/17 10:48:33;;;;;;;3.90;2.60;;;;;;;33.75;25.19;101700.91;5041174;28;20526;-73
2023/07/17 10:50:58;;;;;;;4.57;2.80;;;;;;;34.35;24.03;101707.28;5032321;28;20044;-72
2023/07/17 10:53:24;;;;;;;5.30;2.83;;;;;;;34.57;23.40;101687.72;5043747;28;20032;-73
2023/07/17 10:55:50;;;;;;;4.22;2.80;;;;;;;33.77;23.72;101692.41;5037338;28;20419;-71
2023/07/17 10:58:18;;;;;;;5.25;3.13;;;;;;;33.47;24.82;101704.66;5039846;28;20622;-72
2023/07/17 11:00:44;;;;;;;4.40;3.30;;;;;;;33.87;24.73;101703.88;5033237;28;20029;-71
2023/07/17 11:03:24;;;;;;;5.43;3.50;;;;;;;32.59;25.85;101705.50;5038151;28;20027;-71
2023/07/17 11:05:57;;;;;;;5.60;3.35;;;;;;;31.94;26.82;101704.78;5038424;28;20040;-71
2023/07/17 11:08:26;;;;;;;5.40;3.33;;;;;;;32.26;26.14;101705.22;5040859;28;20546;-68
2023/07/17 11:10:51;;;;;;;5.70;3.42;;;;;;;32.22;26.27;101704.78;5046879;28;20487;-70
2023/07/17 11:13:17;;;;;;;6.13;3.67;;;;;;;33.33;25.38;101713.94;5035342;28;20036;-74
2023/07/17 11:15:42;;;;;;;4.30;3.20;;;;;;;34.45;24.76;101695.81;5040886;28;20466;-73